createdAt,value
2023-01-05T00:01:09.188Z,99793.59
2023-01-05T00:03:36.673Z,99788.00
2023-01-05T00:06:11.940Z,99772.94
2023-01-05T00:08:39.642Z,99790.25
2023-01-05T00:11:36.957Z,99779.41
2023-01-05T00:14:22.493Z,99784.19
2023-01-05T00:17:07.943Z,99772.13
2023-01-05T00:19:53.466Z,99786.31
2023-01-05T00:22:32.632Z,99788.25
2023-01-05T00:25:11.816Z,99774.72
2023-01-05T00:27:44.135Z,99782.75
2023-01-05T00:30:13.493Z,99776.50
2023-01-05T00:32:41.278Z,99786.16
2023-01-05T00:35:09.114Z,99786.56
2023-01-05T00:37:36.613Z,99799.50
2023-01-05T00:40:03.896Z,99788.56
2023-01-05T00:42:30.657Z,99801.81
2023-01-05T00:44:57.453Z,99766.41
2023-01-05T00:47:24.148Z,99773.59
2023-01-05T00:49:50.917Z,99780.81
2023-01-05T00:52:17.669Z,99761.09
2023-01-05T00:54:44.360Z,99781.34
2023-01-05T00:57:11.844Z,99771.03
2023-01-05T00:59:39.560Z,99769.09
2023-01-05T01:02:06.463Z,99777.69
2023-01-05T01:04:33.653Z,99757.13
2023-01-05T01:07:00.876Z,99795.94
2023-01-05T01:09:27.646Z,99782.44
2023-01-05T01:11:54.341Z,99754.09
2023-01-05T01:14:21.151Z,99769.81
2023-01-05T01:16:49.587Z,99770.66
2023-01-05T01:19:19.850Z,99769.81
2023-01-05T01:21:48.315Z,99769.81
2023-01-05T01:24:17.440Z,99779.84
2023-01-05T01:26:44.215Z,99777.31
2023-01-05T01:29:11.200Z,99768.16
2023-01-05T01:31:38.390Z,99783.00
2023-01-05T01:34:05.212Z,99789.38
2023-01-05T01:36:31.928Z,99804.03
2023-01-05T01:38:58.950Z,99769.41
2023-01-05T01:41:25.738Z,99784.38
2023-01-05T01:43:54.264Z,99771.94
2023-01-05T01:46:24.327Z,99768.34
2023-01-05T01:48:55.698Z,99787.66
2023-01-05T01:51:27.214Z,99767.41
2023-01-05T01:53:56.731Z,99761.34
2023-01-05T01:56:24.755Z,99783.53
2023-01-05T01:58:52.100Z,99766.13
2023-01-05T02:01:19.799Z,99784.25
2023-01-05T02:03:47.431Z,99775.44
2023-01-05T02:06:14.427Z,99794.13
2023-01-05T02:08:41.169Z,99826.19
2023-01-05T02:11:26.535Z,99788.81
2023-01-05T02:14:07.073Z,99766.88
2023-01-05T02:16:49.017Z,99775.44
2023-01-05T02:19:46.470Z,99775.56
2023-01-05T02:22:35.345Z,99788.09
2023-01-05T02:25:26.318Z,99755.41
2023-01-05T02:28:08.909Z,99755.22
2023-01-05T02:30:48.547Z,99768.16
2023-01-05T02:33:58.164Z,99762.84
2023-01-05T02:36:30.431Z,99790.94
2023-01-05T02:39:17.393Z,99768.16
2023-01-05T02:41:58.439Z,99760.69
2023-01-05T02:44:29.533Z,99762.59
2023-01-05T02:47:28.092Z,99768.97
2023-01-05T02:50:10.286Z,99765.25
2023-01-05T02:53:08.520Z,99778.63
2023-01-05T02:55:37.493Z,99758.16
2023-01-05T02:58:11.669Z,99788.19
2023-01-05T03:00:44.667Z,99766.00
2023-01-05T03:03:41.650Z,99765.75
2023-01-05T03:06:13.741Z,99781.47
2023-01-05T03:08:49.420Z,99760.13
2023-01-05T03:11:36.381Z,99763.00
2023-01-05T03:14:31.558Z,99783.63
2023-01-05T03:17:00.554Z,99791.47
2023-01-05T03:19:39.819Z,99763.84
2023-01-05T03:22:38.442Z,99788.44
2023-01-05T03:25:25.631Z,99759.78
2023-01-05T03:28:13.081Z,99776.06
2023-01-05T03:31:16.874Z,99778.06
2023-01-05T03:34:09.462Z,99763.13
2023-01-05T03:36:44.551Z,99771.31
2023-01-05T03:39:12.421Z,99760.47
2023-01-05T03:41:39.497Z,99764.19
2023-01-05T03:44:07.021Z,99749.00
2023-01-05T03:46:37.961Z,99757.94
2023-01-05T03:49:04.851Z,99779.50
2023-01-05T03:51:35.054Z,99783.94
2023-01-05T03:54:06.595Z,99833.81
2023-01-05T03:56:35.701Z,99803.16
2023-01-05T03:59:03.223Z,99847.97
2023-01-05T04:01:30.066Z,99818.91
2023-01-05T04:03:59.093Z,99819.44
2023-01-05T04:06:25.893Z,99862.81
2023-01-05T04:08:52.717Z,99813.22
2023-01-05T04:11:22.180Z,99820.88
2023-01-05T04:13:56.852Z,99827.66
2023-01-05T04:16:24.102Z,99838.72
2023-01-05T04:18:53.025Z,99827.06
2023-01-05T04:21:21.427Z,99844.25
2023-01-05T04:23:49.721Z,99860.69
2023-01-05T04:26:16.812Z,99836.72
2023-01-05T04:28:47.681Z,99841.59
2023-01-05T04:31:14.445Z,99866.28
2023-01-05T04:33:46.150Z,99839.38
2023-01-05T04:36:17.471Z,99871.28
2023-01-05T04:38:44.807Z,99822.19
2023-01-05T04:41:11.663Z,99851.13
2023-01-05T04:43:41.113Z,99832.78
2023-01-05T04:46:08.790Z,99847.13
2023-01-05T04:48:36.735Z,99875.16
2023-01-05T04:51:05.080Z,99862.38
2023-01-05T04:53:35.209Z,99848.03
2023-01-05T04:56:04.187Z,99878.13
2023-01-05T04:58:35.561Z,99860.63
2023-01-05T05:01:02.405Z,99865.09
2023-01-05T05:03:33.370Z,99850.91
2023-01-05T05:06:01.198Z,99874.75
2023-01-05T05:08:29.077Z,99880.66
2023-01-05T05:10:56.199Z,99864.16
2023-01-05T05:13:23.519Z,99881.94
2023-01-05T05:15:52.419Z,99867.63
2023-01-05T05:18:19.710Z,99859.59
2023-01-05T05:20:51.855Z,99853.56
2023-01-05T05:23:20.825Z,99883.84
2023-01-05T05:25:51.570Z,99862.75
2023-01-05T05:28:20.182Z,99861.91
2023-01-05T05:30:49.445Z,99877.81
2023-01-05T05:33:16.227Z,99866.03
2023-01-05T05:35:42.924Z,99887.00
2023-01-05T05:38:09.677Z,99871.56
2023-01-05T05:40:36.349Z,99871.56
2023-01-05T05:43:03.331Z,99894.22
2023-01-05T05:45:30.040Z,99885.34
2023-01-05T05:47:56.757Z,99859.16
2023-01-05T05:50:23.769Z,99882.16
2023-01-05T05:52:50.423Z,99871.75
2023-01-05T05:55:17.199Z,99891.16
2023-01-05T05:57:43.927Z,99883.41
2023-01-05T06:00:11.239Z,99911.13
2023-01-05T06:02:41.041Z,99899.16
2023-01-05T06:05:08.366Z,99881.88
2023-01-05T06:07:35.116Z,99882.94
2023-01-05T06:10:01.986Z,99896.06
2023-01-05T06:12:29.259Z,99876.16
2023-01-05T06:14:56.036Z,99889.28
2023-01-05T06:17:22.711Z,99898.16
2023-01-05T06:19:49.360Z,99904.22
2023-01-05T06:22:16.057Z,99902.81
2023-01-05T06:24:42.764Z,99926.53
2023-01-05T06:27:10.973Z,99905.56
2023-01-05T06:29:37.757Z,99918.69
2023-01-05T06:32:04.612Z,99922.19
2023-01-05T06:34:31.303Z,99924.84
2023-01-05T06:37:02.250Z,99926.72
2023-01-05T06:39:29.395Z,99908.97
2023-01-05T06:41:56.236Z,99930.13
2023-01-05T06:44:22.950Z,99915.09
2023-01-05T06:46:49.652Z,99929.38
2023-01-05T06:49:16.395Z,99944.31
2023-01-05T06:51:43.085Z,99936.38
2023-01-05T06:54:09.791Z,99916.16
2023-01-05T06:56:36.543Z,99935.72
2023-01-05T06:59:03.362Z,99933.28
2023-01-05T07:01:30.160Z,99941.22
2023-01-05T07:03:57.038Z,99930.63
2023-01-05T07:06:23.766Z,99939.63
2023-01-05T07:08:50.477Z,99972.66
2023-01-05T07:11:17.150Z,99934.66
2023-01-05T07:13:47.973Z,99966.63
2023-01-05T07:16:14.567Z,99954.34
2023-01-05T07:18:41.407Z,99953.41
2023-01-05T07:21:08.077Z,99968.63
2023-01-05T07:23:37.917Z,99948.50
2023-01-05T07:26:06.748Z,99974.22
2023-01-05T07:28:34.184Z,99967.41
2023-01-05T07:31:00.885Z,99967.34
2023-01-05T07:33:27.876Z,99992.81
2023-01-05T07:35:54.637Z,99991.88
2023-01-05T07:38:21.325Z,99996.22
2023-01-05T07:40:47.998Z,99989.34
2023-01-05T07:43:14.695Z,100000.69
2023-01-05T07:45:42.184Z,100007.66
2023-01-05T07:48:08.896Z,100005.00
2023-01-05T07:50:35.657Z,100014.09
2023-01-05T07:53:02.434Z,100025.53
2023-01-05T07:55:29.123Z,100021.75
2023-01-05T07:57:55.846Z,100022.97
2023-01-05T08:00:22.560Z,100013.47
2023-01-05T08:02:49.291Z,100030.28
2023-01-05T08:05:16.022Z,100032.25
2023-01-05T08:07:42.783Z,100027.63
2023-01-05T08:10:36.316Z,100039.25
2023-01-05T08:13:22.918Z,100055.41
2023-01-05T08:15:51.724Z,100058.91
2023-01-05T08:18:18.853Z,100066.84
2023-01-05T08:20:57.258Z,100060.78
2023-01-05T08:23:26.836Z,100066.06
2023-01-05T08:25:55.034Z,100083.66
2023-01-05T08:28:22.371Z,100082.16
2023-01-05T08:30:49.091Z,100075.81
2023-01-05T08:33:15.837Z,100074.94
2023-01-05T08:35:44.074Z,100090.47
2023-01-05T08:38:11.309Z,100060.06
2023-01-05T08:40:38.765Z,100067.13
2023-01-05T08:43:06.409Z,100083.00
2023-01-05T08:45:33.648Z,100086.41
2023-01-05T08:48:01.856Z,100069.59
2023-01-05T08:50:31.864Z,100069.50
2023-01-05T08:52:58.769Z,100076.66
2023-01-05T08:55:25.456Z,100086.00
2023-01-05T08:57:52.248Z,100110.50
2023-01-05T09:00:21.955Z,100108.31
2023-01-05T09:02:49.054Z,100076.66
2023-01-05T09:05:16.564Z,100090.56
2023-01-05T09:07:43.330Z,100088.75
2023-01-05T09:10:10.048Z,100152.84
2023-01-05T09:12:38.173Z,100115.69
2023-01-05T09:15:05.804Z,100130.63
2023-01-05T09:17:33.788Z,100117.19
2023-01-05T09:20:03.462Z,100163.69
2023-01-05T09:22:36.169Z,100129.38
2023-01-05T09:25:04.538Z,100193.78
2023-01-05T09:27:33.863Z,100148.28
2023-01-05T09:30:00.807Z,100131.00
2023-01-05T09:32:27.952Z,100150.94
2023-01-05T09:34:54.749Z,100151.13
2023-01-05T09:37:21.520Z,100147.53
2023-01-05T09:39:48.270Z,100128.19
2023-01-05T09:42:18.191Z,100129.59
2023-01-05T09:44:56.975Z,100161.44
2023-01-05T09:47:41.734Z,100145.63
2023-01-05T09:50:20.785Z,100171.94
2023-01-05T09:52:48.770Z,100162.84
2023-01-05T09:55:17.548Z,100168.06
2023-01-05T09:58:10.799Z,100126.53
2023-01-05T10:00:41.261Z,100127.19
2023-01-05T10:03:53.688Z,100139.03
2023-01-05T10:06:14.374Z,100141.56
2023-01-05T10:08:45.884Z,100145.56
2023-01-05T10:11:34.563Z,100147.63
2023-01-05T10:14:20.542Z,100180.03
2023-01-05T10:16:53.512Z,100217.59
2023-01-05T10:19:24.778Z,100149.94
2023-01-05T10:22:02.987Z,100168.28
2023-01-05T10:24:52.145Z,100148.03
2023-01-05T10:27:27.637Z,100143.69
2023-01-05T10:30:22.343Z,100187.13
2023-01-05T10:33:22.025Z,100221.84
2023-01-05T10:36:07.379Z,100198.09
2023-01-05T10:39:22.730Z,100180.41
2023-01-05T10:42:25.288Z,100184.13
2023-01-05T10:44:59.679Z,100181.47
2023-01-05T10:47:27.831Z,100224.78
2023-01-05T10:49:54.580Z,100217.69
2023-01-05T10:52:22.711Z,100192.91
2023-01-05T10:54:54.055Z,100223.75
2023-01-05T10:57:35.997Z,100191.97
2023-01-05T11:00:18.003Z,100229.41
2023-01-05T11:03:03.746Z,100208.03
2023-01-05T11:05:49.696Z,100204.44
2023-01-05T11:08:37.409Z,100212.19
2023-01-05T11:11:08.083Z,100230.19
2023-01-05T11:13:47.430Z,100243.03
2023-01-05T11:16:26.649Z,100222.97
2023-01-05T11:19:00.437Z,100231.41
2023-01-05T11:21:39.506Z,100227.91
2023-01-05T11:24:32.578Z,100229.41
2023-01-05T11:27:21.523Z,100261.22
2023-01-05T11:30:28.604Z,100254.09
2023-01-05T11:32:55.332Z,100256.38
2023-01-05T11:35:30.864Z,100256.66
2023-01-05T11:38:00.552Z,100256.84
2023-01-05T11:40:32.429Z,100286.09
2023-01-05T11:43:02.498Z,100268.47
2023-01-05T11:45:38.245Z,100284.28
2023-01-05T11:48:09.606Z,100268.38
2023-01-05T11:50:48.643Z,100303.97
2023-01-05T11:53:45.185Z,100300.38
2023-01-05T11:56:23.326Z,100284.47
2023-01-05T11:58:55.326Z,100292.91
2023-01-05T12:01:40.907Z,100292.06
2023-01-05T12:04:26.013Z,100305.47
2023-01-05T12:07:21.159Z,100301.88
2023-01-05T12:10:05.654Z,100313.53
2023-01-05T12:12:53.764Z,100357.91
2023-01-05T12:15:37.480Z,100315.44
2023-01-05T12:18:41.486Z,100372.84
2023-01-05T12:21:25.444Z,100333.00
2023-01-05T12:24:19.462Z,100339.75
2023-01-05T12:26:58.843Z,100343.44
2023-01-05T12:31:34.393Z,100344.09
2023-01-05T12:36:22.256Z,100352.59
2023-01-05T12:39:26.991Z,100380.06
2023-01-05T12:42:22.908Z,100396.59
2023-01-05T12:45:40.942Z,100389.03
2023-01-05T12:48:17.334Z,100399.38
2023-01-05T12:50:53.551Z,100421.88
2023-01-05T12:53:30.896Z,100426.84
2023-01-05T12:55:59.998Z,100429.69
2023-01-05T12:58:34.992Z,100464.81
2023-01-05T13:01:06.844Z,100426.47
2023-01-05T13:03:42.796Z,100434.09
2023-01-05T13:06:16.662Z,100479.31
2023-01-05T13:08:59.604Z,100454.75
2023-01-05T13:14:40.407Z,100443.16
2023-01-05T13:17:14.907Z,100446.03
2023-01-05T13:19:46.535Z,100466.59
2023-01-05T13:22:28.677Z,100444.81
2023-01-05T13:25:20.131Z,100466.94
2023-01-05T13:27:51.971Z,100464.47
2023-01-05T13:30:24.720Z,100452.25
2023-01-05T13:33:10.230Z,100482.88
2023-01-05T13:36:28.510Z,100478.38
2023-01-05T13:39:33.726Z,100493.97
2023-01-05T13:42:49.104Z,100503.47
2023-01-05T13:45:38.504Z,100519.59
2023-01-05T13:48:45.132Z,100533.84
2023-01-05T13:51:29.692Z,100543.66
2023-01-05T13:54:43.365Z,100545.22
2023-01-05T13:57:26.244Z,100545.81
2023-01-05T14:00:07.267Z,100551.66
2023-01-05T14:03:15.640Z,100562.25
2023-01-05T14:13:23.091Z,100589.53
2023-01-05T14:16:43.936Z,100593.72
2023-01-05T14:20:11.126Z,100602.13
2023-01-05T14:22:58.664Z,100608.09
2023-01-05T14:25:38.892Z,100631.69
2023-01-05T14:48:46.665Z,100679.81
2023-01-05T14:51:29.440Z,100686.19
2023-01-05T14:54:13.523Z,100677.59
2023-01-05T14:56:49.967Z,100685.59
2023-01-05T14:59:23.575Z,100694.19
2023-01-05T15:01:56.199Z,100711.84
2023-01-05T15:04:28.083Z,100711.59
2023-01-05T15:07:05.375Z,100717.88
2023-01-05T15:09:56.134Z,100731.06
2023-01-05T15:13:04.432Z,100731.28
2023-01-05T15:19:52.336Z,100748.81
2023-01-05T15:22:50.056Z,100750.13
2023-01-05T15:25:43.333Z,100764.22
2023-01-05T15:28:46.214Z,100765.28
2023-01-05T15:31:35.253Z,100773.22
2023-01-05T15:34:38.769Z,100778.16
2023-01-05T15:37:23.534Z,100781.13
2023-01-05T15:43:44.586Z,100815.84
2023-01-05T15:46:45.256Z,100799.50
2023-01-05T15:49:20.110Z,100814.28
2023-01-05T15:52:06.944Z,100808.16
2023-01-05T15:54:34.158Z,100816.09
2023-01-05T15:57:03.217Z,100808.16
2023-01-05T16:00:03.684Z,100821.44
2023-01-05T16:50:57.773Z,100901.13
2023-01-05T16:53:32.111Z,100893.44
2023-01-05T16:56:00.699Z,100909.41
2023-01-05T16:58:38.689Z,100906.38
2023-01-05T17:01:26.898Z,100917.41
2023-01-05T17:04:37.708Z,100919.13
2023-01-05T17:07:06.636Z,100922.38
2023-01-05T17:09:34.379Z,100926.00
2023-01-05T17:12:44.725Z,100936.16
2023-01-05T17:19:12.233Z,100937.25
2023-01-05T17:21:47.458Z,100939.06
2023-01-05T17:24:17.804Z,100944.97
2023-01-05T17:26:45.762Z,100948.16
2023-01-05T17:29:34.295Z,100946.56
2023-01-05T17:35:23.210Z,100965.78
2023-01-05T17:38:05.809Z,100964.09
2023-01-05T17:40:43.289Z,100977.66
2023-01-05T17:43:10.454Z,100967.72
2023-01-05T17:45:48.016Z,100966.47
2023-01-05T17:51:31.047Z,100967.22
2023-01-05T17:53:59.154Z,100967.16
2023-01-05T17:56:26.627Z,100979.56
2023-01-05T17:58:53.482Z,100997.06
2023-01-05T18:18:11.164Z,101010.97
2023-01-05T18:20:45.003Z,101021.03
2023-01-05T18:23:12.103Z,101027.53
2023-01-05T18:26:30.676Z,101026.78
2023-01-05T18:32:00.181Z,101040.59
2023-01-05T18:34:27.179Z,101034.09
2023-01-05T18:37:01.550Z,101036.41
2023-01-05T18:40:39.101Z,101048.78
2023-01-05T18:43:06.023Z,101052.25
2023-01-05T18:45:59.377Z,101065.13
2023-01-05T18:48:41.956Z,101067.19
2023-01-05T18:51:59.209Z,101070.50
2023-01-05T18:54:25.973Z,101075.34
2023-01-05T18:56:55.792Z,101078.75
2023-01-05T18:59:22.704Z,101077.97
2023-01-05T19:01:54.790Z,101080.41
2023-01-05T19:04:39.383Z,101073.06
2023-01-05T19:10:11.730Z,101075.91
2023-01-05T19:12:46.391Z,101074.72
2023-01-05T19:15:32.309Z,101083.47
2023-01-05T19:18:05.791Z,101085.44
2023-01-05T19:24:40.476Z,101086.00
2023-01-05T19:27:21.877Z,101104.53
2023-01-05T19:29:49.024Z,101102.66
2023-01-05T19:32:15.831Z,101097.91
2023-01-05T19:34:51.699Z,101114.19
2023-01-05T19:37:26.604Z,101110.78
2023-01-05T19:47:44.227Z,101105.75
2023-01-05T19:50:31.695Z,101098.69
2023-01-05T19:53:13.193Z,101103.25
2023-01-05T20:54:38.590Z,101170.78
2023-01-05T21:13:32.249Z,101198.63
2023-01-05T21:17:06.733Z,101203.25
2023-01-05T21:24:11.979Z,101198.56
2023-01-05T21:27:30.187Z,101196.16
2023-01-05T21:53:51.080Z,101219.69
2023-01-05T22:01:14.168Z,101216.25
2023-01-05T22:08:10.158Z,101215.44
2023-01-05T22:22:16.341Z,101231.69
2023-01-05T22:26:20.159Z,101231.53
2023-01-05T22:44:00.286Z,101240.41
2023-01-05T22:47:55.575Z,101246.59
2023-01-05T22:55:31.675Z,101234.88
2023-01-05T22:58:27.586Z,101236.53
2023-01-05T23:01:23.026Z,101249.59
2023-01-05T23:04:11.624Z,101245.28
2023-01-05T23:07:00.631Z,101228.84
2023-01-05T23:09:46.112Z,101235.94
2023-01-05T23:12:36.662Z,101242.38
2023-01-05T23:39:14.938Z,101250.06
2023-01-05T23:42:38.913Z,101251.78
2023-01-05T23:45:24.607Z,101242.06
2023-01-05T23:47:54.288Z,101246.53
2023-01-05T23:50:32.555Z,101233.38
2023-01-05T23:53:17.492Z,101234.38
2023-01-05T23:56:19.402Z,101236.34
2023-01-05T23:59:08.568Z,101244.41
